createdAt,value
2018-07-20T00:03:34.575Z,18.41
2018-07-20T00:06:03.349Z,18.31
2018-07-20T00:08:32.804Z,18.23
2018-07-20T00:11:04.713Z,18.15
2018-07-20T00:13:33.856Z,18.06
2018-07-20T00:16:03.119Z,17.98
2018-07-20T00:18:31.724Z,17.90
2018-07-20T00:21:00.346Z,17.83
2018-07-20T00:26:16.583Z,18.47
2018-07-20T00:28:45.261Z,17.99
2018-07-20T00:31:13.909Z,17.84
2018-07-20T00:33:42.549Z,17.72
2018-07-20T00:36:11.206Z,17.54
2018-07-20T00:38:39.835Z,18.10
2018-07-20T00:41:08.498Z,17.46
2018-07-20T00:43:37.128Z,18.04
2018-07-20T00:46:13.328Z,17.44
2018-07-20T00:48:41.945Z,17.27
2018-07-20T00:51:11.164Z,17.15
2018-07-20T00:53:45.359Z,17.06
2018-07-20T00:56:14.934Z,16.97
2018-07-20T00:58:44.102Z,16.88
2018-07-20T01:01:13.715Z,17.54
2018-07-20T01:03:42.706Z,17.02
2018-07-20T01:06:11.787Z,16.90
2018-07-20T01:08:40.557Z,17.55
2018-07-20T01:11:09.462Z,17.05
2018-07-20T01:13:38.089Z,16.92
2018-07-20T01:16:06.758Z,17.56
2018-07-20T01:18:35.378Z,17.70
2018-07-20T01:21:04.032Z,17.13
2018-07-20T01:23:32.655Z,16.99
2018-07-20T01:26:01.826Z,16.86
2018-07-20T01:28:30.764Z,16.77
2018-07-20T01:31:02.358Z,17.42
2018-07-20T01:33:31.335Z,16.87
2018-07-20T01:35:59.996Z,16.73
2018-07-20T01:38:28.826Z,16.63
2018-07-20T01:40:57.594Z,16.56
2018-07-20T01:43:26.229Z,16.51
2018-07-20T01:45:55.464Z,16.47
2018-07-20T01:48:24.039Z,16.42
2018-07-20T01:50:53.477Z,16.39
2018-07-20T01:53:22.184Z,16.36
2018-07-20T01:55:52.274Z,16.33
2018-07-20T01:58:24.586Z,17.02
2018-07-20T02:00:53.284Z,17.19
2018-07-20T02:03:22.302Z,17.29
2018-07-20T02:05:51.142Z,17.35
2018-07-20T02:08:20.852Z,16.77
2018-07-20T02:10:50.714Z,16.64
2018-07-20T02:13:19.476Z,17.24
2018-07-20T02:15:48.110Z,16.70
2018-07-20T02:18:16.783Z,16.55
2018-07-20T02:20:45.958Z,16.45
2018-07-20T02:23:16.208Z,16.35
2018-07-20T02:25:44.855Z,16.24
2018-07-20T02:28:14.052Z,16.16
2018-07-20T02:30:42.991Z,16.11
2018-07-20T02:33:11.664Z,16.06
2018-07-20T02:35:40.966Z,15.99
2018-07-20T02:38:09.636Z,16.65
2018-07-20T02:40:38.275Z,16.79
2018-07-20T02:43:06.932Z,16.88
2018-07-20T02:45:35.575Z,16.32
2018-07-20T02:48:04.938Z,16.13
2018-07-20T02:50:33.942Z,16.00
2018-07-20T02:53:02.946Z,15.88
2018-07-20T02:55:31.598Z,15.79
2018-07-20T02:58:00.248Z,15.73
2018-07-20T03:00:29.230Z,15.65
2018-07-20T03:02:58.530Z,15.56
2018-07-20T03:05:27.571Z,15.51
2018-07-20T03:07:56.301Z,15.39
2018-07-20T03:10:25.272Z,15.33
2018-07-20T03:12:54.578Z,15.30
2018-07-20T03:15:38.539Z,15.29
2018-07-20T03:18:07.527Z,15.29
2018-07-20T03:20:38.609Z,16.02
2018-07-20T03:23:08.080Z,15.55
2018-07-20T03:25:36.705Z,15.49
2018-07-20T03:28:05.981Z,15.46
2018-07-20T03:30:35.491Z,15.46
2018-07-20T03:33:09.396Z,15.44
2018-07-20T03:35:42.955Z,15.45
2018-07-20T03:38:11.545Z,15.45
2018-07-20T03:40:40.392Z,15.37
2018-07-20T03:45:56.949Z,15.25
2018-07-20T03:48:25.628Z,15.23
2018-07-20T03:50:54.261Z,15.22
2018-07-20T03:53:22.924Z,15.24
2018-07-20T03:55:51.562Z,15.26
2018-07-20T03:58:20.222Z,15.28
2018-07-20T04:00:48.850Z,15.32
2018-07-20T04:03:17.514Z,15.39
2018-07-20T04:05:46.142Z,15.44
2018-07-20T04:08:15.038Z,15.48
2018-07-20T04:10:43.841Z,16.25
2018-07-20T04:13:12.656Z,16.53
2018-07-20T04:15:41.506Z,16.07
2018-07-20T04:18:10.125Z,16.03
2018-07-20T04:23:28.898Z,16.08
2018-07-20T04:25:58.135Z,16.13
2018-07-20T04:28:26.980Z,16.93
2018-07-20T04:30:56.201Z,16.54
2018-07-20T04:33:24.918Z,16.53
2018-07-20T04:35:53.597Z,17.34
2018-07-20T04:38:22.241Z,16.94
2018-07-20T04:40:51.365Z,16.94
2018-07-20T04:43:21.296Z,17.00
2018-07-20T04:45:50.352Z,17.08
2018-07-20T04:48:19.506Z,17.17
2018-07-20T04:50:50.023Z,18.01
2018-07-20T04:53:20.066Z,17.64
2018-07-20T04:55:49.055Z,17.65
2018-07-20T04:58:17.719Z,17.72
2018-07-20T05:00:46.544Z,17.80
2018-07-20T05:03:15.448Z,17.90
2018-07-20T05:05:44.366Z,18.00
2018-07-20T05:08:13.167Z,18.09
2018-07-20T05:10:41.883Z,18.92
2018-07-20T05:13:12.040Z,18.58
2018-07-20T05:15:40.885Z,18.62
2018-07-20T05:18:10.007Z,18.72
2018-07-20T05:20:38.660Z,19.55
2018-07-20T05:23:07.394Z,19.15
2018-07-20T05:25:36.198Z,19.17
2018-07-20T05:28:05.036Z,19.93
2018-07-20T05:30:33.691Z,20.15
2018-07-20T05:33:02.686Z,19.68
2018-07-20T05:35:31.641Z,19.65
2018-07-20T05:38:00.360Z,19.65
2018-07-20T05:40:29.152Z,20.40
2018-07-20T05:42:57.981Z,19.99
2018-07-20T05:45:26.639Z,19.99
2018-07-20T05:47:55.490Z,20.76
2018-07-20T05:50:32.085Z,21.06
2018-07-20T05:53:00.855Z,20.66
2018-07-20T05:55:29.499Z,20.69
2018-07-20T05:57:58.305Z,20.79
2018-07-20T06:00:27.503Z,20.92
2018-07-20T06:02:56.511Z,21.04
2018-07-20T06:05:25.319Z,21.17
2018-07-20T06:07:54.011Z,21.31
2018-07-20T06:10:23.144Z,21.48
2018-07-20T06:12:52.324Z,21.64
2018-07-20T06:15:27.119Z,21.82
2018-07-20T06:17:56.050Z,21.99
2018-07-20T06:20:25.932Z,22.18
2018-07-20T06:22:54.708Z,22.35
2018-07-20T06:25:23.411Z,22.54
2018-07-20T06:27:52.120Z,22.72
2018-07-20T06:30:20.844Z,22.87
2018-07-20T06:32:49.731Z,23.76
2018-07-20T06:35:18.724Z,23.50
2018-07-20T06:37:47.620Z,23.63
2018-07-20T06:40:16.647Z,23.80
2018-07-20T06:42:47.280Z,23.96
2018-07-20T06:45:16.735Z,24.12
2018-07-20T06:47:46.250Z,24.29
2018-07-20T06:50:15.616Z,25.25
2018-07-20T06:52:44.701Z,24.96
2018-07-20T06:55:13.519Z,25.03
2018-07-20T06:57:42.329Z,25.12
2018-07-20T07:00:11.645Z,25.30
2018-07-20T07:02:40.824Z,25.49
2018-07-20T07:05:09.842Z,25.68
2018-07-20T07:07:39.419Z,25.86
2018-07-20T07:10:08.396Z,25.99
2018-07-20T07:12:38.107Z,26.15
2018-07-20T07:15:07.230Z,26.33
2018-07-20T07:17:36.011Z,26.52
2018-07-20T07:20:05.289Z,26.74
2018-07-20T07:22:34.599Z,26.94
2018-07-20T07:25:04.104Z,27.08
2018-07-20T07:27:34.256Z,27.17
2018-07-20T07:30:02.943Z,27.29
2018-07-20T07:32:31.837Z,27.33
2018-07-20T07:35:00.528Z,27.48
2018-07-20T07:37:30.070Z,27.62
2018-07-20T07:39:59.859Z,28.66
2018-07-20T07:42:28.783Z,28.04
2018-07-20T07:44:59.072Z,28.09
2018-07-20T07:47:31.723Z,29.14
2018-07-20T07:50:02.618Z,28.56
2018-07-20T07:52:31.540Z,28.61
2018-07-20T07:55:01.749Z,28.69
2018-07-20T07:57:31.852Z,28.71
2018-07-20T08:00:00.989Z,28.72
2018-07-20T08:02:30.123Z,28.70
2018-07-20T08:04:59.403Z,28.75
2018-07-20T08:07:30.007Z,28.91
2018-07-20T08:09:59.072Z,29.10
2018-07-20T08:12:27.782Z,29.20
2018-07-20T08:14:58.229Z,29.31
2018-07-20T08:17:26.940Z,29.40
2018-07-20T08:19:55.698Z,29.45
2018-07-20T08:22:24.559Z,29.42
2018-07-20T08:24:53.769Z,30.61
2018-07-20T08:27:22.594Z,29.90
2018-07-20T08:29:51.302Z,29.87
2018-07-20T08:32:20.013Z,29.94
2018-07-20T08:34:50.647Z,30.97
2018-07-20T08:37:18.188Z,30.22
2018-07-20T08:39:47.304Z,30.21
2018-07-20T08:42:16.075Z,30.26
2018-07-20T08:44:45.253Z,30.23
2018-07-20T08:47:13.890Z,30.21
2018-07-20T08:49:43.543Z,31.45
2018-07-20T08:52:20.518Z,30.78
2018-07-20T08:54:50.874Z,30.83
2018-07-20T08:57:21.571Z,30.92
2018-07-20T08:59:50.676Z,31.01
2018-07-20T09:02:19.374Z,31.05
2018-07-20T09:04:48.299Z,31.12
2018-07-20T09:07:16.975Z,31.24
2018-07-20T09:09:45.647Z,32.56
2018-07-20T09:12:14.840Z,31.85
2018-07-20T09:14:43.714Z,31.87
2018-07-20T09:17:14.123Z,31.96
2018-07-20T09:19:43.384Z,33.22
2018-07-20T09:23:07.005Z,32.42
2018-07-20T09:25:35.653Z,32.44
2018-07-20T09:28:47.067Z,32.36
2018-07-20T09:34:25.364Z,33.31
2018-07-20T09:36:54.022Z,32.41
2018-07-20T09:39:22.646Z,32.63
2018-07-20T09:41:51.294Z,32.93
2018-07-20T09:44:20.707Z,33.22
2018-07-20T09:46:49.302Z,33.50
2018-07-20T09:49:18.058Z,33.20
2018-07-20T09:51:46.930Z,32.91
2018-07-20T09:54:18.327Z,32.71
2018-07-20T09:56:47.850Z,32.54
2018-07-20T09:59:16.705Z,32.27
2018-07-20T10:01:46.464Z,32.52
2018-07-20T10:04:15.087Z,32.88
2018-07-20T10:06:44.412Z,33.30
2018-07-20T10:09:13.034Z,33.39
2018-07-20T10:11:42.078Z,33.28
2018-07-20T10:14:10.889Z,33.39
2018-07-20T10:16:39.691Z,34.94
2018-07-20T10:19:08.365Z,34.14
2018-07-20T10:21:37.344Z,34.30
2018-07-20T10:24:06.000Z,34.28
2018-07-20T10:26:34.974Z,34.36
2018-07-20T10:29:03.979Z,34.58
2018-07-20T10:31:33.068Z,34.83
2018-07-20T10:34:01.886Z,36.45
2018-07-20T10:36:30.608Z,35.41
2018-07-20T10:38:59.412Z,36.83
2018-07-20T10:41:28.213Z,35.79
2018-07-20T10:43:57.235Z,35.14
2018-07-20T10:46:25.868Z,34.41
2018-07-20T10:48:54.525Z,34.20
2018-07-20T10:51:23.463Z,35.74
2018-07-20T10:53:52.962Z,34.80
2018-07-20T10:56:22.065Z,36.23
2018-07-20T10:58:51.657Z,35.24
2018-07-20T11:01:23.205Z,35.11
2018-07-20T11:03:52.948Z,35.19
2018-07-20T11:06:21.719Z,35.21
2018-07-20T11:08:50.579Z,36.65
2018-07-20T11:11:19.387Z,35.86
2018-07-20T11:13:49.151Z,35.94
2018-07-20T11:16:18.068Z,35.94
2018-07-20T11:18:46.990Z,35.94
2018-07-20T11:21:20.537Z,36.03
2018-07-20T11:23:50.538Z,35.87
2018-07-20T11:26:23.341Z,35.90
2018-07-20T11:28:52.929Z,36.14
2018-07-20T11:31:22.783Z,36.09
2018-07-20T11:33:53.125Z,35.99
2018-07-20T11:36:22.344Z,36.10
2018-07-20T11:38:51.464Z,36.22
2018-07-20T11:41:20.701Z,36.25
2018-07-20T11:43:50.266Z,36.35
2018-07-20T11:46:19.859Z,36.50
2018-07-20T11:48:50.743Z,38.23
2018-07-20T11:51:19.965Z,36.91
2018-07-20T11:53:50.370Z,36.42
2018-07-20T11:56:19.781Z,36.14
2018-07-20T11:58:49.250Z,37.54
2018-07-20T12:01:18.844Z,37.88
2018-07-20T12:03:52.286Z,36.43
2018-07-20T12:06:25.900Z,35.77
2018-07-20T12:08:55.308Z,35.35
2018-07-20T12:11:24.728Z,35.04
2018-07-20T12:13:54.133Z,34.68
2018-07-20T12:16:23.027Z,34.60
2018-07-20T12:18:52.171Z,34.69
2018-07-20T12:21:21.792Z,35.55
2018-07-20T12:23:50.594Z,34.19
2018-07-20T12:26:22.372Z,33.80
2018-07-20T12:28:50.996Z,33.48
2018-07-20T12:31:19.669Z,33.19
2018-07-20T12:33:48.491Z,32.95
2018-07-20T12:36:17.467Z,32.63
2018-07-20T12:38:46.219Z,32.54
2018-07-20T12:41:15.495Z,32.61
2018-07-20T12:43:44.140Z,34.06
2018-07-20T12:46:13.069Z,33.56
2018-07-20T12:48:41.797Z,33.73
2018-07-20T12:51:10.628Z,33.52
2018-07-20T12:53:39.252Z,33.15
2018-07-20T12:56:07.950Z,34.29
2018-07-20T12:58:36.983Z,33.60
2018-07-20T13:01:05.944Z,33.89
2018-07-20T13:03:34.724Z,34.15
2018-07-20T13:06:03.826Z,34.38
2018-07-20T13:08:32.470Z,34.64
2018-07-20T13:11:04.257Z,34.94
2018-07-20T13:13:33.217Z,35.07
2018-07-20T13:16:02.241Z,35.18
2018-07-20T13:18:31.322Z,35.28
2018-07-20T13:21:00.247Z,35.27
2018-07-20T13:23:28.912Z,34.84
2018-07-20T13:26:00.130Z,34.47
2018-07-20T13:28:29.346Z,35.59
2018-07-20T13:30:58.576Z,34.49
2018-07-20T13:33:27.653Z,34.06
2018-07-20T13:35:56.730Z,33.67
2018-07-20T13:38:25.669Z,33.73
2018-07-20T13:40:54.581Z,35.46
2018-07-20T13:43:23.438Z,35.64
2018-07-20T13:45:52.410Z,35.07
2018-07-20T13:48:24.031Z,35.23
2018-07-20T13:50:52.931Z,35.52
2018-07-20T13:53:21.774Z,35.54
2018-07-20T13:55:51.658Z,35.41
2018-07-20T13:58:20.330Z,35.41
2018-07-20T14:00:48.956Z,36.86
2018-07-20T14:03:17.813Z,36.26
2018-07-20T14:05:46.449Z,37.50
2018-07-20T14:08:15.116Z,36.77
2018-07-20T14:10:43.776Z,36.73
2018-07-20T14:13:12.498Z,36.80
2018-07-20T14:15:41.132Z,36.97
2018-07-20T14:18:09.991Z,37.07
2018-07-20T14:20:38.463Z,38.19
2018-07-20T14:23:07.395Z,37.39
2018-07-20T14:25:36.460Z,37.37
2018-07-20T14:28:07.271Z,37.35
